createdAt,value
2018-03-25T00:01:25.217Z,-0.90
2018-03-25T00:03:52.673Z,-0.90
2018-03-25T00:06:20.128Z,-0.90
2018-03-25T00:08:47.589Z,-0.80
2018-03-25T00:11:15.054Z,-0.80
2018-03-25T00:13:42.522Z,-0.90
2018-03-25T00:16:09.973Z,-1.00
2018-03-25T00:18:37.436Z,-1.10
2018-03-25T00:21:04.902Z,-1.10
2018-03-25T00:23:32.357Z,-1.10
2018-03-25T00:25:59.822Z,-1.00
2018-03-25T00:28:27.274Z,-1.00
2018-03-25T00:30:54.730Z,-1.10
2018-03-25T00:33:22.179Z,-1.10
2018-03-25T00:35:49.642Z,-1.10
2018-03-25T00:38:17.109Z,-1.10
2018-03-25T00:40:45.329Z,-1.30
2018-03-25T00:43:12.786Z,-1.30
2018-03-25T00:45:40.240Z,-1.30
2018-03-25T00:48:08.457Z,-1.40
2018-03-25T00:50:35.917Z,-1.40
2018-03-25T00:53:03.373Z,-1.20
2018-03-25T00:55:30.828Z,-1.30
2018-03-25T00:57:59.052Z,-1.20
2018-03-25T01:00:26.509Z,-1.20
2018-03-25T01:02:53.977Z,-1.30
2018-03-25T01:05:21.434Z,-1.30
2018-03-25T01:07:48.896Z,-1.30
2018-03-25T01:10:16.356Z,-1.40
2018-03-25T01:12:43.848Z,-1.40
2018-03-25T01:15:11.285Z,-1.40
2018-03-25T01:17:38.758Z,-1.40
2018-03-25T01:20:06.213Z,-1.40
2018-03-25T01:22:33.681Z,-1.40
2018-03-25T01:25:01.905Z,-1.40
2018-03-25T01:27:29.373Z,-1.40
2018-03-25T01:29:57.619Z,-1.50
2018-03-25T01:32:25.086Z,-1.50
2018-03-25T01:34:52.545Z,-1.60
2018-03-25T01:37:20.008Z,-1.70
2018-03-25T01:39:47.461Z,-1.70
2018-03-25T01:42:15.705Z,-1.80
2018-03-25T01:44:43.165Z,-1.80
2018-03-25T01:47:10.620Z,-1.70
2018-03-25T01:49:38.087Z,-1.80
2018-03-25T01:52:05.551Z,-1.80
2018-03-25T01:54:33.009Z,-1.90
2018-03-25T01:57:00.463Z,-2.00
2018-03-25T01:59:27.925Z,-2.00
2018-03-25T02:01:55.389Z,-2.00
2018-03-25T02:04:22.845Z,-2.10
2018-03-25T02:06:50.307Z,-2.00
2018-03-25T02:09:17.762Z,-2.10
2018-03-25T02:11:45.225Z,-2.10
2018-03-25T02:14:12.684Z,-2.20
2018-03-25T02:16:40.141Z,-2.20
2018-03-25T02:19:07.601Z,-2.20
2018-03-25T02:21:35.057Z,-2.20
2018-03-25T02:24:02.518Z,-2.30
2018-03-25T02:26:29.972Z,-2.20
2018-03-25T02:28:57.432Z,-2.30
2018-03-25T02:31:24.905Z,-2.30
2018-03-25T02:33:53.134Z,-2.30
2018-03-25T02:36:20.584Z,-2.30
2018-03-25T02:38:48.041Z,-2.40
2018-03-25T02:41:15.501Z,-2.50
2018-03-25T02:43:42.960Z,-2.60
2018-03-25T02:46:10.418Z,-2.60
2018-03-25T02:48:37.868Z,-2.60
2018-03-25T02:51:05.331Z,-2.50
2018-03-25T02:53:32.806Z,-2.40
2018-03-25T02:56:00.264Z,-2.50
2018-03-25T02:58:27.741Z,-2.50
2018-03-25T03:00:55.204Z,-2.50
2018-03-25T03:03:23.437Z,-2.50
2018-03-25T03:05:51.044Z,-2.50
2018-03-25T03:08:19.278Z,-2.50
2018-03-25T03:10:46.736Z,-2.60
2018-03-25T03:13:14.210Z,-2.60
2018-03-25T03:15:41.669Z,-2.60
2018-03-25T03:18:09.132Z,-2.60
2018-03-25T03:20:36.583Z,-2.60
2018-03-25T03:23:04.047Z,-2.60
2018-03-25T03:25:31.500Z,-2.70
2018-03-25T03:27:58.970Z,-2.60
2018-03-25T03:30:27.196Z,-2.60
2018-03-25T03:32:54.668Z,-2.60
2018-03-25T03:35:22.122Z,-2.60
2018-03-25T03:37:49.589Z,-2.60
2018-03-25T03:40:17.048Z,-2.70
2018-03-25T03:42:44.504Z,-2.80
2018-03-25T03:45:11.968Z,-2.70
2018-03-25T03:47:39.436Z,-2.80
2018-03-25T03:50:07.664Z,-2.80
2018-03-25T03:52:35.112Z,-2.80
2018-03-25T03:55:02.572Z,-2.90
2018-03-25T03:57:30.029Z,-2.90
2018-03-25T03:59:57.494Z,-2.80
2018-03-25T04:02:24.940Z,-2.80
2018-03-25T04:04:52.397Z,-2.80
2018-03-25T04:07:19.852Z,-2.90
2018-03-25T04:09:47.318Z,-2.80
2018-03-25T04:12:14.776Z,-2.90
2018-03-25T04:14:42.241Z,-2.90
2018-03-25T04:17:09.706Z,-2.80
2018-03-25T04:19:37.289Z,-2.90
2018-03-25T04:22:05.509Z,-2.90
2018-03-25T04:24:32.969Z,-2.90
2018-03-25T04:27:00.419Z,-3.00
2018-03-25T04:29:27.889Z,-3.10
2018-03-25T04:31:55.339Z,-3.10
2018-03-25T04:34:22.804Z,-3.10
2018-03-25T04:36:51.038Z,-3.10
2018-03-25T04:39:18.509Z,-3.20
2018-03-25T04:41:45.974Z,-3.20
2018-03-25T04:44:13.431Z,-3.20
2018-03-25T04:46:40.889Z,-3.30
2018-03-25T04:49:08.364Z,-3.20
2018-03-25T04:51:35.821Z,-3.20
2018-03-25T04:54:03.277Z,-3.20
2018-03-25T04:56:30.732Z,-3.20
2018-03-25T04:58:58.958Z,-3.20
2018-03-25T05:01:27.184Z,-3.20
2018-03-25T05:03:54.657Z,-3.20
2018-03-25T05:06:22.108Z,-3.30
2018-03-25T05:08:49.576Z,-3.30
2018-03-25T05:11:17.036Z,-3.20
2018-03-25T05:13:44.513Z,-3.20
2018-03-25T05:16:12.740Z,-3.20
2018-03-25T05:18:40.206Z,-3.20
2018-03-25T05:21:07.661Z,-3.10
2018-03-25T05:23:35.137Z,-3.20
2018-03-25T05:26:02.596Z,-3.20
2018-03-25T05:28:30.065Z,-3.20
2018-03-25T05:30:58.308Z,-3.00
2018-03-25T05:33:25.771Z,-3.00
2018-03-25T05:35:53.224Z,-3.00
2018-03-25T05:38:20.681Z,-3.00
2018-03-25T05:40:48.136Z,-2.90
2018-03-25T05:43:15.597Z,-2.80
2018-03-25T05:45:43.061Z,-2.70
2018-03-25T05:48:11.013Z,-2.70
2018-03-25T05:50:38.467Z,-2.50
2018-03-25T05:53:05.940Z,-2.40
2018-03-25T05:55:33.418Z,-2.40
2018-03-25T05:58:01.645Z,-2.10
2018-03-25T06:00:29.109Z,-2.10
2018-03-25T06:02:56.578Z,-2.00
2018-03-25T06:05:25.544Z,-1.80
2018-03-25T06:07:53.000Z,-1.70
2018-03-25T06:10:20.460Z,-1.50
2018-03-25T06:12:47.916Z,-1.40
2018-03-25T06:15:15.382Z,-1.30
2018-03-25T06:17:42.837Z,-1.20
2018-03-25T06:20:10.324Z,-1.00
2018-03-25T06:22:37.784Z,-0.90
2018-03-25T06:25:06.004Z,-0.70
2018-03-25T06:27:33.465Z,-0.70
2018-03-25T06:30:00.919Z,-0.60
2018-03-25T06:32:28.372Z,-0.50
2018-03-25T06:34:55.823Z,-0.40
2018-03-25T06:37:23.288Z,-0.20
2018-03-25T06:39:50.748Z,-0.30
2018-03-25T06:42:18.203Z,-0.20
2018-03-25T06:44:45.729Z,-0.20
2018-03-25T06:47:13.950Z,-0.10
2018-03-25T06:49:41.409Z,-0.10
2018-03-25T06:52:08.861Z,0.10
2018-03-25T06:54:36.324Z,0.20
2018-03-25T06:57:04.538Z,0.40
2018-03-25T06:59:32.756Z,0.50
2018-03-25T07:02:00.330Z,0.50
2018-03-25T07:04:27.757Z,0.60
2018-03-25T07:06:55.221Z,0.80
2018-03-25T07:09:22.669Z,0.90
2018-03-25T07:11:50.131Z,1.00
2018-03-25T07:14:17.582Z,1.20
2018-03-25T07:16:45.034Z,1.50
2018-03-25T07:19:12.485Z,1.60
2018-03-25T07:21:39.956Z,2.00
2018-03-25T07:24:07.413Z,1.90
2018-03-25T07:26:34.856Z,2.10
2018-03-25T07:29:02.456Z,2.50
2018-03-25T07:31:29.914Z,2.60
2018-03-25T07:33:58.225Z,3.20
2018-03-25T07:36:25.721Z,3.20
2018-03-25T07:38:53.196Z,3.90
2018-03-25T07:41:20.649Z,5.60
2018-03-25T07:43:48.095Z,7.50
2018-03-25T07:46:15.577Z,9.10
2018-03-25T07:48:43.036Z,11.00
2018-03-25T07:51:10.495Z,12.80
2018-03-25T07:53:37.953Z,13.90
2018-03-25T07:56:06.913Z,14.90
2018-03-25T07:58:34.364Z,14.90
2018-03-25T08:01:01.935Z,15.50
2018-03-25T08:03:29.388Z,16.90
2018-03-25T08:05:56.849Z,18.10
2018-03-25T08:08:24.302Z,18.60
2018-03-25T08:10:51.760Z,17.70
2018-03-25T08:13:19.204Z,19.30
2018-03-25T08:15:46.661Z,19.60
2018-03-25T08:18:14.881Z,20.70
2018-03-25T08:20:42.476Z,20.70
2018-03-25T08:23:09.937Z,20.80
2018-03-25T08:25:37.404Z,20.80
2018-03-25T08:28:04.886Z,21.40
2018-03-25T08:30:32.365Z,22.00
2018-03-25T08:32:59.821Z,22.30
2018-03-25T08:35:27.277Z,22.30
2018-03-25T08:37:54.734Z,22.60
2018-03-25T08:40:22.968Z,22.80
2018-03-25T08:42:50.425Z,22.70
2018-03-25T08:45:17.958Z,23.50
2018-03-25T08:47:45.433Z,23.30
2018-03-25T08:50:12.882Z,23.70
2018-03-25T08:52:40.341Z,22.90
2018-03-25T08:55:07.944Z,22.90
2018-03-25T08:57:35.415Z,23.60
2018-03-25T09:00:02.872Z,24.00
2018-03-25T09:02:30.326Z,24.00
2018-03-25T09:04:57.776Z,24.40
2018-03-25T09:07:25.241Z,23.70
2018-03-25T09:09:52.724Z,24.10
2018-03-25T09:12:20.217Z,25.30
2018-03-25T09:14:47.676Z,25.60
2018-03-25T09:17:15.138Z,25.80
2018-03-25T09:19:42.753Z,26.10
2018-03-25T09:22:10.274Z,26.60
2018-03-25T09:24:37.684Z,27.60
2018-03-25T09:27:05.168Z,28.00
2018-03-25T09:29:32.630Z,27.70
2018-03-25T09:32:00.856Z,24.90
2018-03-25T09:34:28.316Z,24.80
2018-03-25T09:36:55.774Z,25.30
2018-03-25T09:39:23.237Z,25.70
2018-03-25T09:41:50.713Z,25.30
2018-03-25T09:44:18.164Z,25.70
2018-03-25T09:46:45.622Z,26.10
2018-03-25T09:49:13.087Z,26.90
2018-03-25T09:51:41.320Z,25.40
2018-03-25T09:54:09.621Z,25.40
2018-03-25T09:56:37.137Z,24.00
2018-03-25T09:59:04.594Z,23.70
2018-03-25T10:01:34.651Z,24.20
2018-03-25T10:04:02.112Z,24.20
2018-03-25T10:06:29.574Z,24.80
2018-03-25T10:08:57.035Z,24.40
2018-03-25T10:11:24.564Z,24.20
2018-03-25T10:13:52.868Z,26.10
2018-03-25T10:16:20.331Z,26.00
2018-03-25T10:18:47.783Z,26.60
2018-03-25T10:21:15.242Z,27.00
2018-03-25T10:23:43.473Z,24.70
2018-03-25T10:26:11.693Z,24.90
2018-03-25T10:28:39.916Z,25.40
2018-03-25T10:31:08.142Z,26.80
2018-03-25T10:33:35.600Z,26.80
2018-03-25T10:36:03.058Z,26.90
2018-03-25T10:38:30.512Z,26.40
2018-03-25T10:40:57.981Z,26.10
2018-03-25T10:43:25.440Z,27.10
2018-03-25T10:45:52.898Z,25.50
2018-03-25T10:48:20.402Z,24.40
2018-03-25T10:50:47.876Z,24.40
2018-03-25T10:53:15.338Z,24.80
2018-03-25T10:55:42.798Z,24.50
2018-03-25T10:58:10.260Z,25.40
2018-03-25T11:00:37.724Z,24.10
2018-03-25T11:03:05.177Z,25.70
2018-03-25T11:05:32.636Z,27.00
2018-03-25T11:08:00.094Z,27.60
2018-03-25T11:10:27.611Z,28.20
2018-03-25T11:12:55.085Z,27.60
2018-03-25T11:15:22.555Z,25.60
2018-03-25T11:17:50.013Z,24.70
2018-03-25T11:20:17.467Z,24.10
2018-03-25T11:22:44.928Z,24.50
2018-03-25T11:25:12.384Z,24.90
2018-03-25T11:27:39.840Z,25.60
2018-03-25T11:30:07.300Z,24.60
2018-03-25T11:32:34.753Z,22.40
2018-03-25T11:35:02.218Z,20.80
2018-03-25T11:37:29.666Z,20.00
2018-03-25T11:39:57.128Z,19.30
2018-03-25T11:42:24.585Z,19.40
2018-03-25T11:44:52.040Z,18.70
2018-03-25T11:47:19.497Z,19.60
2018-03-25T11:49:46.961Z,20.30
2018-03-25T11:52:14.425Z,19.60
2018-03-25T11:54:41.900Z,19.60
2018-03-25T11:57:09.344Z,19.10
2018-03-25T11:59:36.813Z,18.90
2018-03-25T12:02:05.029Z,17.50
2018-03-25T12:04:32.485Z,17.40
2018-03-25T12:06:59.985Z,17.00
2018-03-25T12:09:27.402Z,17.60
2018-03-25T12:11:54.864Z,18.40
2018-03-25T12:14:22.320Z,18.50
2018-03-25T12:16:49.784Z,19.00
2018-03-25T12:19:17.240Z,19.10
2018-03-25T12:21:44.700Z,19.20
2018-03-25T12:24:12.173Z,19.50
2018-03-25T12:26:39.636Z,18.40
2018-03-25T12:29:07.146Z,18.30
2018-03-25T12:31:34.615Z,18.30
2018-03-25T12:34:02.198Z,17.80
2018-03-25T12:36:29.730Z,18.70
2018-03-25T12:38:57.180Z,19.40
2018-03-25T12:41:24.650Z,19.20
2018-03-25T12:43:52.113Z,19.30
2018-03-25T12:46:19.572Z,19.10
2018-03-25T12:48:47.030Z,19.20
2018-03-25T12:51:14.494Z,19.50
2018-03-25T12:53:42.766Z,19.50
2018-03-25T12:56:10.232Z,20.10
2018-03-25T12:58:37.697Z,20.50
2018-03-25T13:01:05.145Z,19.70
2018-03-25T13:03:32.595Z,18.40
2018-03-25T13:06:00.041Z,18.80
2018-03-25T13:08:27.504Z,19.50
2018-03-25T13:10:54.954Z,20.10
2018-03-25T13:13:22.412Z,20.50
2018-03-25T13:15:50.001Z,20.00
2018-03-25T13:18:17.403Z,20.60
2018-03-25T13:20:44.852Z,20.30
2018-03-25T13:23:12.309Z,19.50
2018-03-25T13:25:39.762Z,18.10
2018-03-25T13:28:07.233Z,18.00
2018-03-25T13:30:34.686Z,18.10
2018-03-25T13:33:02.189Z,18.30
2018-03-25T13:35:29.640Z,18.70
2018-03-25T13:37:57.095Z,18.70
2018-03-25T13:40:24.562Z,18.60
2018-03-25T13:42:52.017Z,18.60
2018-03-25T13:45:19.474Z,19.10
2018-03-25T13:47:46.928Z,18.80
2018-03-25T13:50:14.393Z,18.80
2018-03-25T13:52:41.840Z,18.80
2018-03-25T13:55:09.299Z,19.40
2018-03-25T13:57:36.771Z,19.50
2018-03-25T14:00:05.078Z,18.70
2018-03-25T14:02:32.582Z,18.70
2018-03-25T14:05:00.144Z,18.50
2018-03-25T14:07:27.594Z,18.50
2018-03-25T14:09:55.049Z,18.40
2018-03-25T14:12:22.497Z,18.00
2018-03-25T14:14:49.959Z,17.30
2018-03-25T14:17:17.416Z,16.90
2018-03-25T14:19:45.502Z,16.60
2018-03-25T14:22:12.955Z,16.30
2018-03-25T14:24:40.416Z,16.40
2018-03-25T14:27:07.877Z,16.90
2018-03-25T14:29:35.329Z,17.10
2018-03-25T14:32:02.850Z,17.00
2018-03-25T14:34:30.300Z,17.00
2018-03-25T14:36:57.782Z,16.60
2018-03-25T14:39:25.279Z,16.60
2018-03-25T14:41:52.757Z,16.80
2018-03-25T14:44:20.214Z,16.80
2018-03-25T14:46:47.741Z,16.30
2018-03-25T14:49:15.971Z,15.50
2018-03-25T14:51:43.459Z,15.50
2018-03-25T14:54:10.912Z,16.00
2018-03-25T14:56:38.363Z,16.20
2018-03-25T14:59:05.834Z,16.00
2018-03-25T15:01:33.279Z,15.90
2018-03-25T15:04:00.743Z,16.00
2018-03-25T15:06:28.192Z,16.10
2018-03-25T15:08:55.665Z,16.30
2018-03-25T15:11:23.888Z,16.30
2018-03-25T15:13:51.353Z,16.20
2018-03-25T15:16:18.819Z,16.30
2018-03-25T15:18:46.287Z,16.10
2018-03-25T15:21:13.753Z,15.90
2018-03-25T15:23:41.208Z,15.90
2018-03-25T15:26:08.696Z,15.70
2018-03-25T15:28:36.914Z,15.40
2018-03-25T15:31:04.388Z,15.40
2018-03-25T15:33:31.848Z,15.20
2018-03-25T15:35:59.305Z,15.40
2018-03-25T15:38:26.763Z,15.20
2018-03-25T15:40:54.235Z,15.00
2018-03-25T15:43:21.746Z,14.90
2018-03-25T15:45:49.196Z,14.80
2018-03-25T15:48:16.656Z,14.60
2018-03-25T15:50:44.135Z,14.30
2018-03-25T15:53:11.618Z,14.20
2018-03-25T15:55:39.846Z,14.10
2018-03-25T15:58:07.317Z,14.10
2018-03-25T16:00:34.774Z,14.10
2018-03-25T16:03:02.232Z,13.90
2018-03-25T16:05:29.717Z,13.90
2018-03-25T16:07:57.219Z,13.80
2018-03-25T16:10:24.673Z,13.80
2018-03-25T16:12:52.129Z,13.70
2018-03-25T16:15:20.348Z,13.50
2018-03-25T16:17:47.809Z,13.50
2018-03-25T16:20:15.269Z,13.40
2018-03-25T16:22:42.727Z,13.30
2018-03-25T16:25:10.184Z,13.20
2018-03-25T16:27:37.636Z,13.10
2018-03-25T16:30:05.088Z,13.00
2018-03-25T16:32:32.542Z,12.90
2018-03-25T16:34:59.999Z,12.80
2018-03-25T16:37:27.455Z,12.60
2018-03-25T16:39:54.951Z,12.30
2018-03-25T16:42:22.410Z,12.00
2018-03-25T16:44:49.872Z,11.80
2018-03-25T16:47:17.337Z,11.60
2018-03-25T16:49:44.801Z,11.40
2018-03-25T16:52:12.265Z,11.20
2018-03-25T16:54:39.715Z,11.10
2018-03-25T16:57:07.169Z,11.00
2018-03-25T16:59:34.620Z,10.90
2018-03-25T17:02:02.078Z,10.80
2018-03-25T17:04:29.547Z,10.80
2018-03-25T17:06:57.774Z,10.50
2018-03-25T17:09:25.993Z,10.40
2018-03-25T17:11:53.445Z,10.40
2018-03-25T17:14:20.902Z,10.20
2018-03-25T17:16:48.357Z,10.10
2018-03-25T17:19:15.821Z,10.00
2018-03-25T17:21:43.279Z,9.80
2018-03-25T17:24:10.733Z,9.80
2018-03-25T17:26:38.197Z,9.60
2018-03-25T17:29:05.652Z,9.50
2018-03-25T17:31:33.165Z,9.40
2018-03-25T17:34:00.568Z,9.30
2018-03-25T17:36:28.043Z,9.20
2018-03-25T17:38:55.498Z,9.00
2018-03-25T17:41:22.957Z,8.80
2018-03-25T17:43:51.265Z,8.70
2018-03-25T17:46:19.481Z,8.50
2018-03-25T17:48:46.954Z,8.40
2018-03-25T17:51:14.423Z,8.40
2018-03-25T17:53:41.892Z,8.20
2018-03-25T17:56:09.358Z,8.10
2018-03-25T17:58:37.573Z,7.80
2018-03-25T18:01:05.072Z,7.80
2018-03-25T18:03:32.542Z,7.70
2018-03-25T18:06:00.773Z,7.40
2018-03-25T18:08:28.236Z,7.40
2018-03-25T18:10:55.699Z,7.30
2018-03-25T18:13:23.151Z,7.10
2018-03-25T18:15:50.611Z,7.00
2018-03-25T18:18:18.071Z,7.00
2018-03-25T18:20:56.291Z,6.80
2018-03-25T18:23:13.109Z,6.70
2018-03-25T18:25:40.566Z,6.70
2018-03-25T18:28:08.017Z,6.50
2018-03-25T18:30:35.554Z,6.30
2018-03-25T18:33:03.460Z,6.20
2018-03-25T18:35:31.728Z,5.90
2018-03-25T18:37:59.985Z,5.80
2018-03-25T18:40:27.900Z,5.70
2018-03-25T18:42:55.349Z,5.70
2018-03-25T18:45:22.819Z,5.60
2018-03-25T18:47:50.276Z,5.50
2018-03-25T18:50:17.797Z,5.50
2018-03-25T18:52:46.025Z,5.40
2018-03-25T18:55:13.477Z,5.30
2018-03-25T18:57:40.934Z,5.40
2018-03-25T19:00:08.397Z,5.30
2018-03-25T19:02:35.877Z,5.20
2018-03-25T19:05:03.341Z,5.20
2018-03-25T19:07:30.789Z,5.10
2018-03-25T19:09:58.318Z,5.10
2018-03-25T19:12:26.490Z,5.10
2018-03-25T19:14:53.944Z,5.20
2018-03-25T19:17:21.399Z,5.10
2018-03-25T19:19:48.849Z,5.10
2018-03-25T19:22:16.308Z,5.10
2018-03-25T19:24:43.777Z,5.10
2018-03-25T19:27:11.231Z,5.00
2018-03-25T19:29:38.683Z,4.90
2018-03-25T19:32:06.204Z,4.80
2018-03-25T19:34:33.612Z,4.80
2018-03-25T19:37:01.083Z,4.70
2018-03-25T19:39:28.534Z,4.60
2018-03-25T19:41:55.991Z,4.60
2018-03-25T19:44:23.445Z,4.50
2018-03-25T19:46:51.613Z,4.50
2018-03-25T19:49:19.101Z,4.40
2018-03-25T19:51:46.557Z,4.40
2018-03-25T19:54:14.781Z,4.30
2018-03-25T19:56:42.241Z,4.30
2018-03-25T19:59:09.692Z,4.20
2018-03-25T20:01:37.144Z,4.20
2018-03-25T20:04:04.597Z,4.10
2018-03-25T20:06:32.062Z,4.00
2018-03-25T20:08:59.556Z,4.00
2018-03-25T20:11:26.999Z,3.90
2018-03-25T20:13:54.448Z,3.80
2018-03-25T20:16:21.940Z,3.80
2018-03-25T20:18:49.422Z,3.70
2018-03-25T20:21:16.884Z,3.60
2018-03-25T20:23:44.955Z,3.60
2018-03-25T20:26:12.426Z,3.60
2018-03-25T20:28:39.880Z,3.50
2018-03-25T20:31:07.337Z,3.50
2018-03-25T20:33:34.806Z,3.50
2018-03-25T20:36:02.271Z,3.40
2018-03-25T20:38:29.716Z,3.30
2018-03-25T20:40:57.163Z,3.30
2018-03-25T20:43:24.622Z,3.20
2018-03-25T20:45:52.084Z,3.10
2018-03-25T20:48:19.551Z,3.20
2018-03-25T20:50:47.009Z,3.10
2018-03-25T20:53:14.462Z,3.00
2018-03-25T20:55:41.917Z,2.90
2018-03-25T20:58:09.377Z,2.70
2018-03-25T21:00:36.829Z,2.70
2018-03-25T21:03:05.056Z,2.70
2018-03-25T21:05:34.182Z,2.70
2018-03-25T21:08:01.641Z,2.70
2018-03-25T21:10:29.098Z,2.80
2018-03-25T21:12:56.553Z,2.70
2018-03-25T21:15:24.009Z,2.70
2018-03-25T21:17:51.459Z,2.60
2018-03-25T21:20:18.917Z,2.60
2018-03-25T21:22:46.357Z,2.40
2018-03-25T21:25:13.806Z,2.30
2018-03-25T21:27:42.029Z,2.20
2018-03-25T21:30:09.485Z,2.20
2018-03-25T21:32:36.932Z,2.10
2018-03-25T21:35:04.401Z,2.10
2018-03-25T21:37:31.853Z,2.30
2018-03-25T21:39:59.308Z,2.40
2018-03-25T21:42:26.755Z,2.30
2018-03-25T21:44:54.228Z,2.10
2018-03-25T21:47:21.672Z,2.10
2018-03-25T21:49:49.125Z,2.00
2018-03-25T21:52:16.585Z,2.00
2018-03-25T21:54:44.040Z,2.00
2018-03-25T21:57:11.493Z,1.90
2018-03-25T21:59:38.944Z,1.90
2018-03-25T22:02:06.391Z,1.90
2018-03-25T22:04:33.845Z,1.90
2018-03-25T22:07:01.293Z,1.90
2018-03-25T22:09:28.740Z,1.80
2018-03-25T22:11:56.189Z,1.80
2018-03-25T22:14:24.425Z,1.70
2018-03-25T22:16:52.657Z,1.60
2018-03-25T22:19:20.104Z,1.60
2018-03-25T22:21:47.568Z,1.60
2018-03-25T22:24:15.012Z,1.60
2018-03-25T22:26:42.477Z,1.60
2018-03-25T22:29:09.928Z,1.60
2018-03-25T22:31:37.384Z,1.60
2018-03-25T22:34:04.836Z,1.50
2018-03-25T22:36:33.054Z,1.50
2018-03-25T22:39:00.502Z,1.50
2018-03-25T22:41:27.950Z,1.50
2018-03-25T22:43:55.410Z,1.40
2018-03-25T22:46:22.869Z,1.40
2018-03-25T22:48:50.329Z,1.50
2018-03-25T22:51:17.780Z,1.50
2018-03-25T22:53:45.246Z,1.60
2018-03-25T22:56:12.701Z,1.60
2018-03-25T22:58:40.159Z,1.70
2018-03-25T23:01:07.618Z,1.70
2018-03-25T23:03:35.073Z,1.70
2018-03-25T23:06:02.526Z,1.70
2018-03-25T23:08:29.973Z,1.70
2018-03-25T23:10:57.421Z,1.70
2018-03-25T23:13:24.870Z,1.70
2018-03-25T23:15:52.320Z,1.80
2018-03-25T23:18:19.776Z,1.70
2018-03-25T23:20:47.239Z,1.70
2018-03-25T23:23:14.687Z,1.70
2018-03-25T23:25:42.185Z,1.70
2018-03-25T23:28:09.596Z,1.60
2018-03-25T23:30:37.056Z,1.60
2018-03-25T23:33:04.504Z,1.50
2018-03-25T23:35:32.753Z,1.50
2018-03-25T23:38:00.200Z,1.50
2018-03-25T23:40:27.640Z,1.40
2018-03-25T23:42:55.088Z,1.40
2018-03-25T23:45:22.532Z,1.40
2018-03-25T23:47:49.988Z,1.40
2018-03-25T23:50:17.436Z,1.40
2018-03-25T23:52:44.892Z,1.30
2018-03-25T23:55:12.348Z,1.20
2018-03-25T23:57:39.809Z,1.20
